createdAt,value
2019-02-21T00:00:11.751Z,3.25
2019-02-21T00:01:11.662Z,3.35
2019-02-21T00:02:11.656Z,3.30
2019-02-21T00:03:11.699Z,3.37
2019-02-21T00:04:11.626Z,3.46
2019-02-21T00:05:11.621Z,3.44
2019-02-21T00:06:11.667Z,3.42
2019-02-21T00:07:11.680Z,3.39
2019-02-21T00:08:11.588Z,3.37
2019-02-21T00:09:11.590Z,3.31
2019-02-21T00:10:11.562Z,3.39
2019-02-21T00:11:11.591Z,3.39
2019-02-21T00:12:11.547Z,3.37
2019-02-21T00:13:11.558Z,3.37
2019-02-21T00:14:11.533Z,3.39
2019-02-21T00:15:11.516Z,3.42
2019-02-21T00:16:11.573Z,3.34
2019-02-21T00:17:11.492Z,3.46
2019-02-21T00:18:11.476Z,3.37
2019-02-21T00:19:11.487Z,3.37
2019-02-21T00:20:11.461Z,3.33
2019-02-21T00:21:11.451Z,3.31
2019-02-21T00:22:11.502Z,3.34
2019-02-21T00:23:11.427Z,3.23
2019-02-21T00:24:11.473Z,3.22
2019-02-21T00:25:11.405Z,3.19
2019-02-21T00:26:11.422Z,3.19
2019-02-21T00:27:11.398Z,3.16
2019-02-21T00:28:11.418Z,3.12
2019-02-21T00:29:11.357Z,3.07
2019-02-21T00:30:11.346Z,3.15
2019-02-21T00:31:11.356Z,3.07
2019-02-21T00:32:11.333Z,3.10
2019-02-21T00:33:11.349Z,3.07
2019-02-21T00:34:11.308Z,3.15
2019-02-21T00:35:11.299Z,3.08
2019-02-21T00:36:11.302Z,3.08
2019-02-21T00:37:11.324Z,3.10
2019-02-21T00:38:11.284Z,3.13
2019-02-21T00:39:11.257Z,3.04
2019-02-21T00:40:11.293Z,3.05
2019-02-21T00:41:11.231Z,3.13
2019-02-21T00:42:11.217Z,3.05
2019-02-21T00:43:11.249Z,3.07
2019-02-21T00:44:11.196Z,3.07
2019-02-21T00:45:11.184Z,3.12
2019-02-21T00:46:11.174Z,3.08
2019-02-21T00:47:11.174Z,3.05
2019-02-21T00:48:11.194Z,3.08
2019-02-21T00:49:11.178Z,3.16
2019-02-21T00:50:11.133Z,3.23
2019-02-21T00:51:11.121Z,3.13
2019-02-21T00:52:11.112Z,3.22
2019-02-21T00:53:11.123Z,3.08
2019-02-21T00:54:11.101Z,3.15
2019-02-21T00:55:11.096Z,3.05
2019-02-21T00:56:11.090Z,3.15
2019-02-21T00:57:11.057Z,3.05
2019-02-21T00:58:11.074Z,3.01
2019-02-21T00:59:11.051Z,3.08
2019-02-21T01:00:11.077Z,2.98
2019-02-21T01:01:11.025Z,3.12
2019-02-21T01:02:11.061Z,3.01
2019-02-21T01:03:11.036Z,2.99
2019-02-21T01:04:10.992Z,3.07
2019-02-21T01:05:10.992Z,3.04
2019-02-21T01:06:10.992Z,3.07
2019-02-21T01:07:11.001Z,3.01
2019-02-21T01:08:10.975Z,3.04
2019-02-21T01:09:10.984Z,3.02
2019-02-21T01:10:10.933Z,2.90
2019-02-21T01:11:10.909Z,2.92
2019-02-21T01:12:10.910Z,3.02
2019-02-21T01:13:10.925Z,2.99
2019-02-21T01:14:10.897Z,3.15
2019-02-21T01:15:10.863Z,3.05
2019-02-21T01:16:10.852Z,3.01
2019-02-21T01:17:10.843Z,2.99
2019-02-21T01:18:10.853Z,3.05
2019-02-21T01:19:10.835Z,2.97
2019-02-21T01:20:10.842Z,3.01
2019-02-21T01:21:10.809Z,2.95
2019-02-21T01:22:10.808Z,2.84
2019-02-21T01:23:10.807Z,2.92
2019-02-21T01:24:10.770Z,2.90
2019-02-21T01:25:10.764Z,2.87
2019-02-21T01:26:10.766Z,2.86
2019-02-21T01:27:10.753Z,2.86
2019-02-21T01:28:10.773Z,2.89
2019-02-21T01:29:10.715Z,2.84
2019-02-21T01:30:10.790Z,2.83
2019-02-21T01:31:10.693Z,2.84
2019-02-21T01:32:10.687Z,2.79
2019-02-21T01:33:10.676Z,2.84
2019-02-21T01:34:10.697Z,2.92
2019-02-21T01:35:10.666Z,2.80
2019-02-21T01:36:10.648Z,2.81
2019-02-21T01:37:10.642Z,2.84
2019-02-21T01:38:10.624Z,2.86
2019-02-21T01:39:10.649Z,2.84
2019-02-21T01:40:10.651Z,2.86
2019-02-21T01:41:10.593Z,2.87
2019-02-21T01:42:10.587Z,2.89
2019-02-21T01:43:10.684Z,2.92
2019-02-21T01:44:10.556Z,2.86
2019-02-21T01:45:10.597Z,2.90
2019-02-21T01:46:10.550Z,2.84
2019-02-21T01:47:10.540Z,2.87
2019-02-21T01:48:10.541Z,2.86
2019-02-21T01:49:10.522Z,2.89
2019-02-21T01:50:10.520Z,2.87
2019-02-21T01:51:10.594Z,2.83
2019-02-21T01:52:10.473Z,2.87
2019-02-21T01:53:10.476Z,2.90
2019-02-21T01:54:10.456Z,2.83
2019-02-21T01:55:10.442Z,2.84
2019-02-21T01:56:10.456Z,2.81
2019-02-21T01:57:10.434Z,2.74
2019-02-21T01:58:10.405Z,2.74
2019-02-21T01:59:10.417Z,2.71
2019-02-21T02:00:10.384Z,2.71
2019-02-21T02:01:10.403Z,2.76
2019-02-21T02:02:10.397Z,2.71
2019-02-21T02:03:10.357Z,2.69
2019-02-21T02:04:10.379Z,2.71
2019-02-21T02:05:10.329Z,2.73
2019-02-21T02:06:10.349Z,2.69
2019-02-21T02:07:10.307Z,2.71
2019-02-21T02:08:10.306Z,2.83
2019-02-21T02:09:10.288Z,2.80
2019-02-21T02:10:10.283Z,2.86
2019-02-21T02:11:10.311Z,2.92
2019-02-21T02:12:10.284Z,2.95
2019-02-21T02:13:21.681Z,2.97
2019-02-21T02:14:11.234Z,3.04
2019-02-21T02:15:10.227Z,3.04
2019-02-21T02:16:10.257Z,3.02
2019-02-21T02:17:10.209Z,3.02
2019-02-21T02:18:10.234Z,2.99
2019-02-21T02:19:10.239Z,2.99
2019-02-21T02:20:10.202Z,3.05
2019-02-21T02:21:10.156Z,3.08
2019-02-21T02:22:10.170Z,3.07
2019-02-21T02:23:10.169Z,3.15
2019-02-21T02:24:10.126Z,3.07
2019-02-21T02:25:10.119Z,3.17
2019-02-21T02:26:10.107Z,3.07
2019-02-21T02:27:10.119Z,3.15
2019-02-21T02:28:10.137Z,3.19
2019-02-21T02:29:10.074Z,3.22
2019-02-21T02:30:10.069Z,3.23
2019-02-21T02:31:21.848Z,3.26
2019-02-21T02:32:11.171Z,3.28
2019-02-21T02:33:10.031Z,3.35
2019-02-21T02:34:10.041Z,3.33
2019-02-21T02:35:10.012Z,3.30
2019-02-21T02:36:10.009Z,3.35
2019-02-21T02:37:10.054Z,3.37
2019-02-21T02:38:10.000Z,3.34
2019-02-21T02:39:09.971Z,3.34
2019-02-21T02:40:09.970Z,3.37
2019-02-21T02:41:09.966Z,3.41
2019-02-21T02:42:09.938Z,3.35
2019-02-21T02:43:09.962Z,3.41
2019-02-21T02:44:09.962Z,3.35
2019-02-21T02:45:09.899Z,3.35
2019-02-21T02:46:09.900Z,3.44
2019-02-21T02:47:09.878Z,3.50
2019-02-21T02:48:10.014Z,3.49
2019-02-21T02:49:09.862Z,3.45
2019-02-21T02:50:09.847Z,3.57
2019-02-21T02:51:09.877Z,3.49
2019-02-21T02:52:09.830Z,3.49
2019-02-21T02:53:09.845Z,3.53
2019-02-21T02:54:09.826Z,3.50
2019-02-21T02:55:09.830Z,3.56
2019-02-21T02:56:09.781Z,3.59
2019-02-21T02:57:09.782Z,3.57
2019-02-21T02:58:09.793Z,3.63
2019-02-21T02:59:09.753Z,3.67
2019-02-21T03:00:09.776Z,3.68
2019-02-21T03:01:09.757Z,3.68
2019-02-21T03:02:09.739Z,3.64
2019-02-21T03:03:09.711Z,3.70
2019-02-21T03:04:09.759Z,3.74
2019-02-21T03:05:09.687Z,3.74
2019-02-21T03:06:09.698Z,3.78
2019-02-21T03:07:09.664Z,3.75
2019-02-21T03:08:09.651Z,3.78
2019-02-21T03:09:09.669Z,3.84
2019-02-21T03:10:09.630Z,3.78
2019-02-21T03:11:09.620Z,3.84
2019-02-21T03:12:09.676Z,3.84
2019-02-21T03:13:09.599Z,3.88
2019-02-21T03:14:09.601Z,3.81
2019-02-21T03:15:09.600Z,3.92
2019-02-21T03:16:09.564Z,3.93
2019-02-21T03:17:09.575Z,3.90
2019-02-21T03:18:09.587Z,3.95
2019-02-21T03:19:09.537Z,3.93
2019-02-21T03:20:09.553Z,4.04
2019-02-21T03:21:09.513Z,3.92
2019-02-21T03:22:09.501Z,4.06
2019-02-21T03:23:09.498Z,4.02
2019-02-21T03:24:09.485Z,4.07
2019-02-21T03:25:09.509Z,3.92
2019-02-21T03:26:09.480Z,4.00
2019-02-21T03:27:09.487Z,4.06
2019-02-21T03:28:09.448Z,3.98
2019-02-21T03:29:09.475Z,4.00
2019-02-21T03:30:12.264Z,4.06
2019-02-21T03:31:09.476Z,4.13
2019-02-21T03:32:09.423Z,4.08
2019-02-21T03:33:09.385Z,4.10
2019-02-21T03:34:09.434Z,4.08
2019-02-21T03:35:09.391Z,4.10
2019-02-21T03:36:09.400Z,4.10
2019-02-21T03:37:09.345Z,4.11
2019-02-21T03:38:09.333Z,4.16
2019-02-21T03:39:09.339Z,4.06
2019-02-21T03:40:09.337Z,4.18
2019-02-21T03:41:09.336Z,4.16
2019-02-21T03:42:09.300Z,4.16
2019-02-21T03:43:09.297Z,4.16
2019-02-21T03:44:09.283Z,4.10
2019-02-21T03:45:09.257Z,4.16
2019-02-21T03:46:09.282Z,4.11
2019-02-21T03:47:09.251Z,4.11
2019-02-21T03:48:09.266Z,4.06
2019-02-21T03:49:09.217Z,4.14
2019-02-21T03:50:09.224Z,4.16
2019-02-21T03:51:09.237Z,4.16
2019-02-21T03:52:09.198Z,4.21
2019-02-21T03:53:09.195Z,4.17
2019-02-21T03:54:09.168Z,4.24
2019-02-21T03:55:09.166Z,4.20
2019-02-21T03:56:09.172Z,4.16
2019-02-21T03:57:09.131Z,4.16
2019-02-21T03:58:09.120Z,4.20
2019-02-21T03:59:09.265Z,4.24
2019-02-21T04:00:09.126Z,4.21
2019-02-21T04:01:09.120Z,4.29
2019-02-21T04:02:09.079Z,4.24
2019-02-21T04:03:09.072Z,4.26
2019-02-21T04:04:09.084Z,4.18
2019-02-21T04:05:09.052Z,4.25
2019-02-21T04:06:09.067Z,4.17
2019-02-21T04:07:09.027Z,4.18
2019-02-21T04:08:09.018Z,4.26
2019-02-21T04:09:09.011Z,4.26
2019-02-21T04:10:09.011Z,4.25
2019-02-21T04:11:09.073Z,4.25
2019-02-21T04:12:08.973Z,4.28
2019-02-21T04:13:08.967Z,4.25
2019-02-21T04:14:08.978Z,4.32
2019-02-21T04:15:08.941Z,4.28
2019-02-21T04:16:08.961Z,4.28
2019-02-21T04:17:08.945Z,4.24
2019-02-21T04:18:08.917Z,4.29
2019-02-21T04:19:08.912Z,4.26
2019-02-21T04:20:08.895Z,4.20
2019-02-21T04:21:08.887Z,4.14
2019-02-21T04:22:08.902Z,4.17
2019-02-21T04:23:08.956Z,4.17
2019-02-21T04:24:08.851Z,4.18
2019-02-21T04:25:08.847Z,4.18
2019-02-21T04:26:08.850Z,4.13
2019-02-21T04:27:08.819Z,4.18
2019-02-21T04:28:08.868Z,4.26
2019-02-21T04:29:08.808Z,4.25
2019-02-21T04:30:08.798Z,4.31
2019-02-21T04:31:08.777Z,4.31
2019-02-21T04:32:16.594Z,4.26
2019-02-21T04:33:09.783Z,4.29
2019-02-21T04:34:08.791Z,4.34
2019-02-21T04:35:08.785Z,4.34
2019-02-21T04:36:08.725Z,4.39
2019-02-21T04:37:08.817Z,4.38
2019-02-21T04:38:08.727Z,4.38
2019-02-21T04:39:08.689Z,4.32
2019-02-21T04:40:08.720Z,4.28
2019-02-21T04:41:08.730Z,4.39
2019-02-21T04:42:08.664Z,4.35
2019-02-21T04:43:08.648Z,4.36
2019-02-21T04:44:08.662Z,4.36
2019-02-21T04:45:08.623Z,4.47
2019-02-21T04:46:08.674Z,4.42
2019-02-21T04:47:08.627Z,4.51
2019-02-21T04:48:08.597Z,4.35
2019-02-21T04:49:08.614Z,4.39
2019-02-21T04:50:08.588Z,4.36
2019-02-21T04:51:08.575Z,4.42
2019-02-21T04:52:08.561Z,4.35
2019-02-21T04:53:08.548Z,4.43
2019-02-21T04:54:08.531Z,4.34
2019-02-21T04:55:08.550Z,4.36
2019-02-21T04:56:08.516Z,4.43
2019-02-21T04:57:08.506Z,4.46
2019-02-21T04:58:08.499Z,4.46
2019-02-21T04:59:08.520Z,4.51
2019-02-21T05:00:08.507Z,4.51
2019-02-21T05:01:08.466Z,4.49
2019-02-21T05:02:08.456Z,4.47
2019-02-21T05:03:08.436Z,4.46
2019-02-21T05:04:08.443Z,4.49
2019-02-21T05:05:08.462Z,4.54
2019-02-21T05:06:08.412Z,4.47
2019-02-21T05:07:08.487Z,4.50
2019-02-21T05:08:08.382Z,4.56
2019-02-21T05:09:08.387Z,4.53
2019-02-21T05:10:08.438Z,4.49
2019-02-21T05:11:08.352Z,4.64
2019-02-21T05:12:08.340Z,4.56
2019-02-21T05:13:08.330Z,4.62
2019-02-21T05:14:08.325Z,4.54
2019-02-21T05:15:08.315Z,4.57
2019-02-21T05:16:08.330Z,4.62
2019-02-21T05:17:08.308Z,4.64
2019-02-21T05:18:08.281Z,4.64
2019-02-21T05:19:08.271Z,4.62
2019-02-21T05:20:08.268Z,4.69
2019-02-21T05:21:08.275Z,4.68
2019-02-21T05:22:08.286Z,4.68
2019-02-21T05:23:08.224Z,4.64
2019-02-21T05:24:08.226Z,4.71
2019-02-21T05:25:08.219Z,4.72
2019-02-21T05:26:08.240Z,4.68
2019-02-21T05:27:08.196Z,4.71
2019-02-21T05:28:08.215Z,4.71
2019-02-21T05:29:08.189Z,4.67
2019-02-21T05:30:08.170Z,4.69
2019-02-21T05:31:08.166Z,4.75
2019-02-21T05:32:08.139Z,4.72
2019-02-21T05:33:08.127Z,4.69
2019-02-21T05:34:08.155Z,4.68
2019-02-21T05:35:08.099Z,4.68
2019-02-21T05:36:08.134Z,4.69
2019-02-21T05:37:08.097Z,4.71
2019-02-21T05:38:08.069Z,4.71
2019-02-21T05:39:08.061Z,4.56
2019-02-21T05:40:08.070Z,4.57
2019-02-21T05:41:08.036Z,4.62
2019-02-21T05:42:08.056Z,4.67
2019-02-21T05:43:08.014Z,4.64
2019-02-21T05:44:08.003Z,4.47
2019-02-21T05:45:10.747Z,4.44
2019-02-21T05:46:08.004Z,4.47
2019-02-21T05:47:08.020Z,4.46
2019-02-21T05:48:07.971Z,4.50
2019-02-21T05:49:07.952Z,4.49
2019-02-21T05:50:08.096Z,4.46
2019-02-21T05:51:07.952Z,4.46
2019-02-21T05:52:07.967Z,4.43
2019-02-21T05:53:07.971Z,4.43
2019-02-21T05:54:07.899Z,4.42
2019-02-21T05:55:07.912Z,4.39
2019-02-21T05:56:07.875Z,4.35
2019-02-21T05:57:07.877Z,4.42
2019-02-21T05:58:07.902Z,4.36
2019-02-21T05:59:07.860Z,4.34
2019-02-21T06:00:07.837Z,4.31
2019-02-21T06:01:07.827Z,4.32
2019-02-21T06:02:07.814Z,4.38
2019-02-21T06:03:07.844Z,4.36
2019-02-21T06:04:07.814Z,4.28
2019-02-21T06:05:08.804Z,4.31
2019-02-21T06:06:07.801Z,4.34
2019-02-21T06:07:09.876Z,4.28
2019-02-21T06:08:07.750Z,4.28
2019-02-21T06:09:07.775Z,4.25
2019-02-21T06:10:07.740Z,4.29
2019-02-21T06:11:07.818Z,4.26
2019-02-21T06:12:07.710Z,4.28
2019-02-21T06:13:07.707Z,4.31
2019-02-21T06:14:07.688Z,4.24
2019-02-21T06:15:07.718Z,4.29
2019-02-21T06:16:07.680Z,4.26
2019-02-21T06:17:07.717Z,4.26
2019-02-21T06:18:07.667Z,4.17
2019-02-21T06:19:07.636Z,4.24
2019-02-21T06:20:07.652Z,4.08
2019-02-21T06:21:07.626Z,4.16
2019-02-21T06:22:10.689Z,4.06
2019-02-21T06:23:07.676Z,4.08
2019-02-21T06:24:07.585Z,4.10
2019-02-21T06:25:07.630Z,4.11
2019-02-21T06:26:07.565Z,4.11
2019-02-21T06:27:07.560Z,4.06
2019-02-21T06:28:07.562Z,4.10
2019-02-21T06:29:09.782Z,4.11
2019-02-21T06:30:07.635Z,4.14
2019-02-21T06:31:07.508Z,4.10
2019-02-21T06:32:14.201Z,4.10
2019-02-21T06:33:08.489Z,4.16
2019-02-21T06:34:07.476Z,4.16
2019-02-21T06:35:07.515Z,4.16
2019-02-21T06:36:07.474Z,4.16
2019-02-21T06:37:07.456Z,4.25
2019-02-21T06:38:07.445Z,4.32
2019-02-21T06:39:07.426Z,4.24
2019-02-21T06:40:07.487Z,4.32
2019-02-21T06:41:07.419Z,4.28
2019-02-21T06:42:07.397Z,4.35
2019-02-21T06:43:07.408Z,4.28
2019-02-21T06:44:07.383Z,4.34
2019-02-21T06:45:07.365Z,4.35
2019-02-21T06:46:07.398Z,4.36
2019-02-21T06:47:07.340Z,4.49
2019-02-21T06:48:07.332Z,4.47
2019-02-21T06:49:07.327Z,4.42
2019-02-21T06:50:07.314Z,4.43
2019-02-21T06:51:07.371Z,4.49
2019-02-21T06:52:07.287Z,4.51
2019-02-21T06:53:07.307Z,4.47
2019-02-21T06:54:07.287Z,4.53
2019-02-21T06:55:07.259Z,4.61
2019-02-21T06:56:07.282Z,4.57
2019-02-21T06:57:07.239Z,4.61
2019-02-21T06:58:07.227Z,4.59
2019-02-21T06:59:07.232Z,4.57
2019-02-21T07:00:07.215Z,4.64
2019-02-21T07:01:07.251Z,4.72
2019-02-21T07:02:07.185Z,4.72
2019-02-21T07:03:15.403Z,4.79
2019-02-21T07:04:08.164Z,4.75
2019-02-21T07:05:07.153Z,4.71
2019-02-21T07:06:07.225Z,4.74
2019-02-21T07:07:07.159Z,4.84
2019-02-21T07:08:08.859Z,4.77
2019-02-21T07:09:07.110Z,4.74
2019-02-21T07:10:07.101Z,4.87
2019-02-21T07:11:07.100Z,4.86
2019-02-21T07:12:07.104Z,4.94
2019-02-21T07:13:07.100Z,4.94
2019-02-21T07:14:07.075Z,4.91
2019-02-21T07:15:07.049Z,4.96
2019-02-21T07:16:07.042Z,4.96
2019-02-21T07:17:08.530Z,4.93
2019-02-21T07:18:07.037Z,4.93
2019-02-21T07:19:07.087Z,5.04
2019-02-21T07:20:06.991Z,4.96
2019-02-21T07:21:07.014Z,5.05
2019-02-21T07:22:07.053Z,5.02
2019-02-21T07:23:06.985Z,5.06
2019-02-21T07:24:06.984Z,5.01
2019-02-21T07:25:06.990Z,5.02
2019-02-21T07:26:06.931Z,5.08
2019-02-21T07:27:06.930Z,4.99
2019-02-21T07:28:11.716Z,5.06
2019-02-21T07:29:07.902Z,5.05
2019-02-21T07:30:06.888Z,5.08
2019-02-21T07:31:06.924Z,5.08
2019-02-21T07:32:06.868Z,5.06
2019-02-21T07:33:06.877Z,5.12
2019-02-21T07:34:07.148Z,5.14
2019-02-21T07:35:06.838Z,5.11
2019-02-21T07:36:06.828Z,5.20
2019-02-21T07:37:17.848Z,5.14
2019-02-21T07:38:07.830Z,5.11
2019-02-21T07:39:16.923Z,5.22
2019-02-21T07:40:07.782Z,5.19
2019-02-21T07:41:06.781Z,5.19
2019-02-21T07:42:06.775Z,5.24
2019-02-21T07:43:06.837Z,5.27
2019-02-21T07:44:12.068Z,5.22
2019-02-21T07:45:07.834Z,5.37
2019-02-21T07:46:07.046Z,5.32
2019-02-21T07:47:06.719Z,5.33
2019-02-21T07:48:06.728Z,5.37
2019-02-21T07:49:06.716Z,5.37
2019-02-21T07:50:06.678Z,5.35
2019-02-21T07:51:06.674Z,5.32
2019-02-21T07:52:06.659Z,5.38
2019-02-21T07:53:06.647Z,5.42
2019-02-21T07:54:06.660Z,5.42
2019-02-21T07:55:06.624Z,5.44
2019-02-21T07:56:06.632Z,5.47
2019-02-21T07:57:08.451Z,5.55
2019-02-21T07:58:06.622Z,5.49
2019-02-21T07:59:06.610Z,5.42
2019-02-21T08:00:06.598Z,5.45
2019-02-21T08:01:06.578Z,5.42
2019-02-21T08:02:06.561Z,5.44
2019-02-21T08:03:09.074Z,5.55
2019-02-21T08:04:06.540Z,5.49
2019-02-21T08:05:06.538Z,5.45
2019-02-21T08:06:06.506Z,5.48
2019-02-21T08:07:06.498Z,5.62
2019-02-21T08:08:09.131Z,5.47
2019-02-21T08:09:06.473Z,5.58
2019-02-21T08:10:06.512Z,5.45
2019-02-21T08:11:07.234Z,5.51
2019-02-21T08:12:06.461Z,5.59
2019-02-21T08:13:06.430Z,5.62
2019-02-21T08:14:06.448Z,5.63
2019-02-21T08:15:06.445Z,5.66
2019-02-21T08:16:06.396Z,5.69
2019-02-21T08:17:06.395Z,5.70
2019-02-21T08:18:06.375Z,5.88
2019-02-21T08:19:06.361Z,5.83
2019-02-21T08:20:08.769Z,5.92
2019-02-21T08:21:06.377Z,5.92
2019-02-21T08:22:06.330Z,6.02
2019-02-21T08:23:06.327Z,6.10
2019-02-21T08:24:06.314Z,6.13
2019-02-21T08:25:06.322Z,6.19
2019-02-21T08:26:06.287Z,6.27
2019-02-21T08:27:06.303Z,6.35
2019-02-21T08:28:06.330Z,6.38
2019-02-21T08:29:06.393Z,6.39
2019-02-21T08:30:06.323Z,6.40
2019-02-21T08:31:06.238Z,6.39
2019-02-21T08:32:06.220Z,6.40
2019-02-21T08:33:06.286Z,6.35
2019-02-21T08:34:06.212Z,6.43
2019-02-21T08:35:06.977Z,6.30
2019-02-21T08:36:06.182Z,6.30
2019-02-21T08:37:08.661Z,6.38
2019-02-21T08:38:06.156Z,6.43
2019-02-21T08:39:06.147Z,6.39
2019-02-21T08:40:06.164Z,6.46
2019-02-21T08:41:06.133Z,6.42
2019-02-21T08:42:06.113Z,6.54
2019-02-21T08:43:06.108Z,6.60
2019-02-21T08:44:06.122Z,6.68
2019-02-21T08:45:06.116Z,6.73
2019-02-21T08:46:06.086Z,6.73
2019-02-21T08:47:06.059Z,6.69
2019-02-21T08:48:06.071Z,6.65
2019-02-21T08:49:06.039Z,6.63
2019-02-21T08:50:06.034Z,6.65
2019-02-21T08:51:06.434Z,6.68
2019-02-21T08:52:06.005Z,6.68
2019-02-21T08:53:05.995Z,6.68
2019-02-21T08:54:06.184Z,6.63
2019-02-21T08:55:05.977Z,6.58
2019-02-21T08:56:06.028Z,6.63
2019-02-21T08:57:05.949Z,6.58
2019-02-21T08:58:07.821Z,6.63
2019-02-21T08:59:05.932Z,6.65
2019-02-21T09:00:05.918Z,6.58
2019-02-21T09:01:05.911Z,6.53
2019-02-21T09:02:05.940Z,6.57
2019-02-21T09:03:05.895Z,6.64
2019-02-21T09:04:13.345Z,6.63
2019-02-21T09:05:09.346Z,6.75
2019-02-21T09:06:05.859Z,6.75
2019-02-21T09:07:05.917Z,6.86
2019-02-21T09:08:05.850Z,6.91
2019-02-21T09:09:05.874Z,7.04
2019-02-21T09:10:05.814Z,7.08
2019-02-21T09:11:05.802Z,7.08
2019-02-21T09:12:06.004Z,7.16
2019-02-21T09:13:05.790Z,7.21
2019-02-21T09:14:05.782Z,7.23
2019-02-21T09:15:05.759Z,7.29
2019-02-21T09:16:05.752Z,7.29
2019-02-21T09:17:05.794Z,7.47
2019-02-21T09:18:05.724Z,7.48
2019-02-21T09:19:05.740Z,7.67
2019-02-21T09:20:05.702Z,7.62
2019-02-21T09:21:05.694Z,7.70
2019-02-21T09:22:05.685Z,7.76
2019-02-21T09:23:05.696Z,7.86
2019-02-21T09:24:05.658Z,7.91
2019-02-21T09:25:05.682Z,8.03
2019-02-21T09:26:05.635Z,8.14
2019-02-21T09:27:05.628Z,8.22
2019-02-21T09:28:05.645Z,8.39
2019-02-21T09:29:05.610Z,8.49
2019-02-21T09:30:05.607Z,8.55
2019-02-21T09:31:05.719Z,8.54
2019-02-21T09:32:06.939Z,8.49
2019-02-21T09:33:14.781Z,8.60
2019-02-21T09:34:06.614Z,8.57
2019-02-21T09:35:05.543Z,8.63
2019-02-21T09:36:05.534Z,8.64
2019-02-21T09:37:05.653Z,8.58
2019-02-21T09:38:05.583Z,8.57
2019-02-21T09:39:05.499Z,8.68
2019-02-21T09:40:05.502Z,8.73
2019-02-21T09:41:05.478Z,8.79
2019-02-21T09:42:05.466Z,8.79
2019-02-21T09:43:05.478Z,8.86
2019-02-21T09:44:05.488Z,9.00
2019-02-21T09:45:05.430Z,9.03
2019-02-21T09:46:05.422Z,9.20
2019-02-21T09:47:05.437Z,9.20
2019-02-21T09:48:05.428Z,9.27
2019-02-21T09:49:05.393Z,9.38
2019-02-21T09:50:05.385Z,9.34
2019-02-21T09:51:05.373Z,9.45
2019-02-21T09:52:05.381Z,9.48
2019-02-21T09:53:05.429Z,9.59
2019-02-21T09:54:05.354Z,9.67
2019-02-21T09:55:05.324Z,9.73
2019-02-21T09:56:05.320Z,9.89
2019-02-21T09:57:12.831Z,9.99
2019-02-21T09:58:06.343Z,9.99
2019-02-21T09:59:05.320Z,10.16
2019-02-21T10:00:05.273Z,10.18
2019-02-21T10:01:05.255Z,10.22
2019-02-21T10:02:05.252Z,10.38
2019-02-21T10:03:05.301Z,10.34
2019-02-21T10:04:05.237Z,10.39
2019-02-21T10:05:05.726Z,10.43
2019-02-21T10:06:05.203Z,10.52
2019-02-21T10:07:05.194Z,10.42
2019-02-21T10:08:05.225Z,10.38
2019-02-21T10:09:05.177Z,10.42
2019-02-21T10:10:05.162Z,10.42
2019-02-21T10:11:05.164Z,10.38
2019-02-21T10:12:05.145Z,10.26
2019-02-21T10:13:05.178Z,10.35
2019-02-21T10:14:05.117Z,10.36
2019-02-21T10:15:05.103Z,10.20
2019-02-21T10:16:05.114Z,10.24
2019-02-21T10:17:05.102Z,10.20
2019-02-21T10:18:05.187Z,10.31
2019-02-21T10:19:05.067Z,10.34
2019-02-21T10:20:05.052Z,10.51
2019-02-21T10:21:05.036Z,10.49
2019-02-21T10:22:05.034Z,10.44
2019-02-21T10:23:05.043Z,10.55
2019-02-21T10:24:05.006Z,10.54
2019-02-21T10:25:05.003Z,10.55
2019-02-21T10:26:05.017Z,10.60
2019-02-21T10:27:04.974Z,10.62
2019-02-21T10:28:04.985Z,10.66
2019-02-21T10:29:04.965Z,10.72
2019-02-21T10:30:04.945Z,10.76
2019-02-21T10:31:04.941Z,10.76
2019-02-21T10:32:04.949Z,10.78
2019-02-21T10:33:04.939Z,10.68
2019-02-21T10:34:04.897Z,10.51
2019-02-21T10:35:04.890Z,10.47
2019-02-21T10:36:04.899Z,10.52
2019-02-21T10:37:04.864Z,10.44
2019-02-21T10:38:04.893Z,10.47
2019-02-21T10:39:04.908Z,10.58
2019-02-21T10:40:04.833Z,10.80
2019-02-21T10:41:04.866Z,10.98
2019-02-21T10:42:04.814Z,10.99
2019-02-21T10:43:04.835Z,11.28
2019-02-21T10:44:04.794Z,11.44
2019-02-21T10:45:04.779Z,11.62
2019-02-21T10:46:04.820Z,11.72
2019-02-21T10:47:04.759Z,11.84
2019-02-21T10:48:04.785Z,11.93
2019-02-21T10:49:04.746Z,12.07
2019-02-21T10:50:04.726Z,12.01
2019-02-21T10:51:04.730Z,11.90
2019-02-21T10:52:04.713Z,11.88
2019-02-21T10:53:04.698Z,11.85
2019-02-21T10:54:04.706Z,11.79
2019-02-21T10:55:04.668Z,11.81
2019-02-21T10:56:04.655Z,11.84
2019-02-21T10:57:04.647Z,11.64
2019-02-21T10:58:04.646Z,11.64
2019-02-21T10:59:04.681Z,11.56
2019-02-21T11:00:04.652Z,11.49
2019-02-21T11:01:04.605Z,11.45
2019-02-21T11:02:04.594Z,11.41
2019-02-21T11:03:04.584Z,11.26
2019-02-21T11:04:04.575Z,11.26
2019-02-21T11:05:04.595Z,11.13
2019-02-21T11:06:04.628Z,11.09
2019-02-21T11:07:04.540Z,11.01
2019-02-21T11:08:04.526Z,11.02
2019-02-21T11:09:04.519Z,11.05
2019-02-21T11:10:04.567Z,11.02
2019-02-21T11:11:04.501Z,11.09
2019-02-21T11:12:04.518Z,10.98
2019-02-21T11:13:04.501Z,11.03
2019-02-21T11:14:04.506Z,11.03
2019-02-21T11:15:04.462Z,11.17
2019-02-21T11:16:04.463Z,11.24
2019-02-21T11:17:04.448Z,11.33
2019-02-21T11:18:04.500Z,11.41
2019-02-21T11:19:04.422Z,11.59
2019-02-21T11:20:04.436Z,11.66
2019-02-21T11:21:04.750Z,11.90
2019-02-21T11:22:04.430Z,12.01
2019-02-21T11:23:06.497Z,12.21
2019-02-21T11:24:04.354Z,12.41
2019-02-21T11:25:04.366Z,12.70
2019-02-21T11:26:04.352Z,12.89
2019-02-21T11:27:04.329Z,12.92
2019-02-21T11:28:04.323Z,13.14
2019-02-21T11:29:04.311Z,13.19
2019-02-21T11:30:04.294Z,13.36
2019-02-21T11:31:04.306Z,13.32
2019-02-21T11:32:04.327Z,13.32
2019-02-21T11:33:04.255Z,13.46
2019-02-21T11:34:04.261Z,13.50
2019-02-21T11:35:06.542Z,13.55
2019-02-21T11:36:04.245Z,13.66
2019-02-21T11:37:04.210Z,13.66
2019-02-21T11:38:04.237Z,13.59
2019-02-21T11:39:04.223Z,13.53
2019-02-21T11:40:05.596Z,13.51
2019-02-21T11:41:04.211Z,13.53
2019-02-21T11:42:04.161Z,13.47
2019-02-21T11:43:04.188Z,13.46
2019-02-21T11:44:04.140Z,13.50
2019-02-21T11:45:04.147Z,13.46
2019-02-21T11:46:04.138Z,13.47
2019-02-21T11:47:04.102Z,13.48
2019-02-21T11:48:04.111Z,13.48
2019-02-21T11:49:04.103Z,13.44
2019-02-21T11:50:04.076Z,13.51
2019-02-21T11:51:04.082Z,13.46
2019-02-21T11:52:10.114Z,13.43
2019-02-21T11:53:05.071Z,13.53
2019-02-21T11:54:04.028Z,13.63
2019-02-21T11:55:04.091Z,13.68
2019-02-21T11:56:04.028Z,13.73
2019-02-21T11:57:03.991Z,13.83
2019-02-21T11:58:03.993Z,13.86
2019-02-21T11:59:03.985Z,13.86
2019-02-21T12:00:03.964Z,13.87
2019-02-21T12:01:04.053Z,13.88
2019-02-21T12:02:03.971Z,14.05
2019-02-21T12:03:03.946Z,13.99
2019-02-21T12:04:03.933Z,13.98
2019-02-21T12:05:03.918Z,14.13
2019-02-21T12:06:03.929Z,14.21
2019-02-21T12:07:03.917Z,14.35
2019-02-21T12:08:03.941Z,14.35
2019-02-21T12:09:03.926Z,14.29
2019-02-21T12:10:03.855Z,14.34
2019-02-21T12:11:03.888Z,14.34
2019-02-21T12:12:03.893Z,14.26
2019-02-21T12:13:03.827Z,14.35
2019-02-21T12:14:03.810Z,14.23
2019-02-21T12:15:03.946Z,14.21
2019-02-21T12:16:03.828Z,14.26
2019-02-21T12:17:03.798Z,14.36
2019-02-21T12:18:03.784Z,14.21
2019-02-21T12:19:03.766Z,14.34
2019-02-21T12:20:03.746Z,14.34
2019-02-21T12:21:03.809Z,14.45
2019-02-21T12:22:03.726Z,14.46
2019-02-21T12:23:03.746Z,14.48
2019-02-21T12:24:03.703Z,14.57
2019-02-21T12:25:03.694Z,14.67
2019-02-21T12:26:03.709Z,14.66
2019-02-21T12:27:03.693Z,14.75
2019-02-21T12:28:03.668Z,14.97
2019-02-21T12:29:03.705Z,15.03
2019-02-21T12:30:03.679Z,15.18
2019-02-21T12:31:03.659Z,15.37
2019-02-21T12:32:03.670Z,15.55
2019-02-21T12:33:03.768Z,15.68
2019-02-21T12:34:03.598Z,15.78
2019-02-21T12:35:03.594Z,15.77
2019-02-21T12:36:03.632Z,15.71
2019-02-21T12:37:03.647Z,15.51
2019-02-21T12:38:03.579Z,15.48
2019-02-21T12:39:03.536Z,15.55
2019-02-21T12:40:03.533Z,15.48
2019-02-21T12:41:03.528Z,15.53
2019-02-21T12:42:03.563Z,15.38
2019-02-21T12:43:03.522Z,15.37
2019-02-21T12:44:03.524Z,15.51
2019-02-21T12:45:03.471Z,15.49
2019-02-21T12:46:03.479Z,15.62
2019-02-21T12:47:03.506Z,15.55
2019-02-21T12:48:03.447Z,15.44
2019-02-21T12:49:03.455Z,15.41
2019-02-21T12:50:03.426Z,15.33
2019-02-21T12:51:03.417Z,15.34
2019-02-21T12:52:03.493Z,15.31
2019-02-21T12:53:03.397Z,15.40
2019-02-21T12:54:03.396Z,15.40
2019-02-21T12:55:03.359Z,15.35
2019-02-21T12:56:03.350Z,15.40
2019-02-21T12:57:03.369Z,15.31
2019-02-21T12:58:03.379Z,15.23
2019-02-21T12:59:03.352Z,15.09
2019-02-21T13:00:03.329Z,15.05
2019-02-21T13:01:03.299Z,15.00
2019-02-21T13:02:03.311Z,14.95
2019-02-21T13:03:03.357Z,14.85
2019-02-21T13:04:03.262Z,14.86
2019-02-21T13:05:03.248Z,14.74
2019-02-21T13:06:03.247Z,14.72
2019-02-21T13:07:03.236Z,14.59
2019-02-21T13:08:03.258Z,14.53
2019-02-21T13:09:03.244Z,14.46
2019-02-21T13:10:03.197Z,14.46
2019-02-21T13:11:03.190Z,14.49
2019-02-21T13:12:03.181Z,14.46